Alto Pass, Illinois
Current Conditions -  °F | °C
As of 4:52 PM on Monday 22 Dec 2014 (Local Time) from KMDH Reporting Station
Haze Haze  
Wind Chill: 50°   Ceiling: 1000
Heat Index: 50°   Visibility: 6mi
Dew Point: 48°   Wind: 8mph
Humidity: 93%   Direction: 160°SSE
Pressure: 29.59"   Gusts: NA
Location:  37.57°N, 89.32°W
Report Text: KMDH 222252Z AUTO 16007KT 6SM BR OVC010 10/09 A2959 RMK AO2 RAE51 CIG 005V013 SLP019 P0000 T01000089
Loading
Personal Weather Stations






























Interactive Weather Map New forecast layout! Learn more

10-Day Weather Forecast

Advertisements
Track Severe Weather on mobile